Terminal Aerodrome Forecast
Issued by NWS Upton, NY

Home | Current Version | Previous Version | Text Only | Print | Product List | Glossary On
Versions: 1 2 3 4 5 6 7 8 9 10 11 12 13 14 15 16 17 18 19 20 21 22 23 24 25
000
FTUS41 KOKX 020200 AAA
TAFISP
TAF AMD
KISP 020231Z 0203/0224 17005KT P6SM -RA SCT050 BKN120
     FM020600 11005KT P6SM -RA FEW010 SCT050 BKN100
     FM020900 07007KT 6SM -RA FEW020 OVC040
     FM021200 06011KT 3SM RA BR SCT010 OVC025
     FM022200 07006KT P6SM BKN025=

USA.gov is the U.S. government's official web portal to all federal, state and local government web resources and services.